Flight Track Log - Related Links

Times and Time Zones

All times are in EST time to prevent confusion due to time zone crossing. See the DAL1118 flight status page for this flight to view local times or setup timezone preferences in your user account.

Time Position Orientation Groundspeed Altitude Reporting Facility
EST Latitude Longitude Course Direction KTS MPH feet Rate Location/Type
Wed 10:18:11 PM 40.8167 -112.0003 21° North 181 208 5,300  Level Salt Lake Center
Wed 10:19:13 PM 40.8753 -112.0078 354° North 213 245 6,700 2,146 Climbing Salt Lake Center
Wed 10:20:14 PM 40.9519 -112.0167 355° North 271 312 9,700 2,705 Climbing Salt Lake Center
Wed 10:21:00 PM 41.1722 -111.8156 37° Northeast  Level Estimated
Wed 10:21:15 PM 41.0256 -111.9856 18° North 295 339 12,200  Level Salt Lake Center
Wed 10:22:00 PM 41.2682 -111.7748 15° North  Level Estimated
Wed 10:22:16 PM 41.1106 -111.9164 32° Northeast 351 404 13,900  Level Salt Lake Center
Wed 10:23:00 PM 41.3624 -111.7276 21° North  Level FlightAware Approximate
Wed 10:23:17 PM 41.1992 -111.8450 31° Northeast 366 421 16,100  Level Salt Lake Center
Wed 10:24:18 PM 41.3008 -111.7972 19° North 384 442 17,800 1,869 Climbing Salt Lake Center
Wed 10:25:19 PM 41.4042 -111.7517 18° North 390 449 19,900 1,770 Climbing Salt Lake Center
Wed 10:26:20 PM 41.5117 -111.7042 18° North 405 466 21,400 1,574 Climbing Salt Lake Center
Wed 10:27:21 PM 41.6236 -111.6539 19° North 423 487 23,100 1,475 Climbing Salt Lake Center
Wed 10:28:22 PM 41.7386 -111.6022 19° North 434 499 24,400 1,230 Climbing Salt Lake Center
Wed 10:29:23 PM 41.8556 -111.5500 18° North 443 510 25,600 1,230 Climbing Salt Lake Center
Wed 10:30:24 PM 41.9753 -111.4967 18° North 451 519 26,900 689 Climbing Salt Lake Center
Wed 10:31:25 PM 42.0925 -111.4436 19° North 446 513 27,000 49 Climbing Salt Lake Center
Wed 10:32:26 PM 42.2103 -111.3906 18° North 447 514 27,000  Level Salt Lake Center
Wed 10:33:28 PM 42.3506 -111.3289 18° North 443 510 27,000  Level Salt Lake Center
Wed 10:34:29 PM 42.4675 -111.2761 18° North 443 510 27,000 -197 Level Salt Lake Center
Wed 10:35:30 PM 42.5847 -111.2236 18° North 444 511 26,600 -1,574 Descending Salt Lake Center
Wed 10:36:31 PM 42.7017 -111.1717 18° North 442 509 23,800 -2,656 Descending Salt Lake Center
Wed 10:37:32 PM 42.8089 -111.1203 19° North 431 496 21,200 -2,852 Descending Salt Lake Center
Wed 10:38:33 PM 42.9225 -111.0694 18° North 394 453 18,000 -2,754 Descending Salt Lake Center
Wed 10:39:34 PM 43.0239 -111.0258 17° North 384 442 15,600 -1,967 Descending Salt Lake Center
Wed 10:40:35 PM 43.1206 -110.9811 19° North 368 423 14,000 -885 Descending Salt Lake Center
Wed 10:41:36 PM 43.2072 -110.9400 19° North 335 386 13,800 -541 Descending Salt Lake Center
Wed 10:42:37 PM 43.2875 -110.9044 18° North 308 354 12,900 -927 Descending Salt Lake Center
Wed 10:43:39 PM 43.3539 -110.8731 19° North 262 302 11,900 -634 Descending Salt Lake Center
Wed 10:44:40 PM 43.4086 -110.8447 21° North 222 255 11,600 -1,279 Descending Salt Lake Center
Wed 10:45:41 PM 43.4514 -110.8222 21° North 180 207 9,300 -1,426 Descending Salt Lake Center
Wed 10:46:42 PM 43.4978 -110.7975 21° North 177 204 8,700 -738 Descending Salt Lake Center
Wed 10:47:43 PM 43.5403 -110.7747 21° North 171 197 7,800 -1,033 Descending Salt Lake Center
Wed 10:48:44 PM 43.5864 -110.7475 23° Northeast 159 183 6,600 -1,180 Descending Salt Lake Center

Login

Don't have an account? Register now (free) for customized features, flight alerts, and more!